sensor_id;sensor_type;location;lat;lon;timestamp;P1;durP1;ratioP1;P2;durP2;ratioP2
24961;SDS011;12992;50.884;13.668;2023-05-16T00:02:22;15.57;;;9.57;;
24961;SDS011;12992;50.884;13.668;2023-05-16T00:04:47;11.60;;;9.07;;
24961;SDS011;12992;50.884;13.668;2023-05-16T00:07:13;12.70;;;9.45;;
24961;SDS011;12992;50.884;13.668;2023-05-16T00:09:38;11.38;;;8.85;;
24961;SDS011;12992;50.884;13.668;2023-05-16T00:12:04;13.82;;;9.85;;
24961;SDS011;12992;50.884;13.668;2023-05-16T00:14:29;12.85;;;9.63;;
24961;SDS011;12992;50.884;13.668;2023-05-16T00:16:55;11.35;;;9.48;;
24961;SDS011;12992;50.884;13.668;2023-05-16T00:19:23;11.88;;;9.85;;
24961;SDS011;12992;50.884;13.668;2023-05-16T00:21:50;12.32;;;9.50;;
24961;SDS011;12992;50.884;13.668;2023-05-16T00:24:15;12.65;;;9.88;;
24961;SDS011;12992;50.884;13.668;2023-05-16T00:26:41;11.95;;;9.50;;
24961;SDS011;12992;50.884;13.668;2023-05-16T00:29:06;13.27;;;9.85;;
24961;SDS011;12992;50.884;13.668;2023-05-16T00:31:31;14.52;;;10.23;;
24961;SDS011;12992;50.884;13.668;2023-05-16T00:33:57;14.68;;;10.32;;
24961;SDS011;12992;50.884;13.668;2023-05-16T00:36:23;13.15;;;10.05;;
24961;SDS011;12992;50.884;13.668;2023-05-16T00:38:48;15.18;;;10.32;;
24961;SDS011;12992;50.884;13.668;2023-05-16T00:41:14;15.20;;;9.93;;
24961;SDS011;12992;50.884;13.668;2023-05-16T00:43:41;13.07;;;10.68;;
24961;SDS011;12992;50.884;13.668;2023-05-16T00:46:06;14.05;;;10.98;;
24961;SDS011;12992;50.884;13.668;2023-05-16T00:48:33;14.85;;;10.25;;
24961;SDS011;12992;50.884;13.668;2023-05-16T00:50:59;13.15;;;10.27;;
24961;SDS011;12992;50.884;13.668;2023-05-16T00:53:25;11.93;;;10.25;;
24961;SDS011;12992;50.884;13.668;2023-05-16T00:55:51;12.45;;;10.25;;
24961;SDS011;12992;50.884;13.668;2023-05-16T00:58:17;12.25;;;10.43;;
24961;SDS011;12992;50.884;13.668;2023-05-16T01:00:43;12.45;;;10.30;;
24961;SDS011;12992;50.884;13.668;2023-05-16T01:03:11;15.70;;;11.60;;
24961;SDS011;12992;50.884;13.668;2023-05-16T01:05:37;15.27;;;11.13;;
24961;SDS011;12992;50.884;13.668;2023-05-16T01:08:02;12.48;;;10.75;;
24961;SDS011;12992;50.884;13.668;2023-05-16T01:10:46;14.15;;;11.18;;
24961;SDS011;12992;50.884;13.668;2023-05-16T01:13:17;13.05;;;10.70;;
24961;SDS011;12992;50.884;13.668;2023-05-16T01:16:35;13.73;;;11.13;;
24961;SDS011;12992;50.884;13.668;2023-05-16T01:19:19;14.40;;;10.82;;
24961;SDS011;12992;50.884;13.668;2023-05-16T01:22:08;15.13;;;11.20;;
24961;SDS011;12992;50.884;13.668;2023-05-16T01:24:50;18.38;;;12.70;;
24961;SDS011;12992;50.884;13.668;2023-05-16T01:27:29;16.83;;;11.80;;
24961;SDS011;12992;50.884;13.668;2023-05-16T01:29:56;15.15;;;11.80;;
24961;SDS011;12992;50.884;13.668;2023-05-16T01:32:21;18.05;;;12.88;;
24961;SDS011;12992;50.884;13.668;2023-05-16T01:34:47;14.85;;;12.18;;
24961;SDS011;12992;50.884;13.668;2023-05-16T01:37:15;15.73;;;12.32;;
24961;SDS011;12992;50.884;13.668;2023-05-16T01:42:55;15.55;;;12.45;;
24961;SDS011;12992;50.884;13.668;2023-05-16T01:45:25;16.08;;;12.48;;
24961;SDS011;12992;50.884;13.668;2023-05-16T01:48:06;16.53;;;13.17;;
24961;SDS011;12992;50.884;13.668;2023-05-16T01:50:40;16.42;;;12.50;;
24961;SDS011;12992;50.884;13.668;2023-05-16T01:53:13;18.45;;;13.25;;
24961;SDS011;12992;50.884;13.668;2023-05-16T01:55:52;11.70;;;9.52;;
24961;SDS011;12992;50.884;13.668;2023-05-16T01:58:22;17.35;;;13.32;;
24961;SDS011;12992;50.884;13.668;2023-05-16T02:00:52;20.70;;;12.35;;
24961;SDS011;12992;50.884;13.668;2023-05-16T02:03:17;15.63;;;12.38;;
24961;SDS011;12992;50.884;13.668;2023-05-16T02:05:44;17.00;;;13.60;;
24961;SDS011;12992;50.884;13.668;2023-05-16T02:08:12;16.98;;;13.43;;
24961;SDS011;12992;50.884;13.668;2023-05-16T02:10:37;15.82;;;12.85;;
24961;SDS011;12992;50.884;13.668;2023-05-16T02:13:05;16.77;;;12.95;;
24961;SDS011;12992;50.884;13.668;2023-05-16T02:15:30;21.27;;;13.68;;
24961;SDS011;12992;50.884;13.668;2023-05-16T02:17:57;19.85;;;14.48;;
24961;SDS011;12992;50.884;13.668;2023-05-16T02:20:22;19.00;;;14.23;;
24961;SDS011;12992;50.884;13.668;2023-05-16T02:22:48;16.52;;;12.88;;
24961;SDS011;12992;50.884;13.668;2023-05-16T02:25:14;16.67;;;12.88;;
24961;SDS011;12992;50.884;13.668;2023-05-16T02:27:40;16.35;;;13.52;;
24961;SDS011;12992;50.884;13.668;2023-05-16T02:30:07;19.17;;;14.27;;
24961;SDS011;12992;50.884;13.668;2023-05-16T02:32:33;19.38;;;14.65;;
24961;SDS011;12992;50.884;13.668;2023-05-16T02:34:58;18.70;;;14.63;;
24961;SDS011;12992;50.884;13.668;2023-05-16T02:37:24;17.05;;;14.48;;
24961;SDS011;12992;50.884;13.668;2023-05-16T02:39:49;19.25;;;15.00;;
24961;SDS011;12992;50.884;13.668;2023-05-16T02:42:15;17.70;;;14.38;;
24961;SDS011;12992;50.884;13.668;2023-05-16T02:44:40;19.98;;;14.05;;
24961;SDS011;12992;50.884;13.668;2023-05-16T02:47:06;21.02;;;14.20;;
24961;SDS011;12992;50.884;13.668;2023-05-16T02:49:31;17.13;;;13.88;;
24961;SDS011;12992;50.884;13.668;2023-05-16T02:51:56;18.88;;;13.77;;
24961;SDS011;12992;50.884;13.668;2023-05-16T02:54:22;17.42;;;14.07;;
24961;SDS011;12992;50.884;13.668;2023-05-16T02:56:47;19.08;;;14.23;;
24961;SDS011;12992;50.884;13.668;2023-05-16T02:59:12;17.35;;;13.35;;
24961;SDS011;12992;50.884;13.668;2023-05-16T03:01:38;18.67;;;14.07;;
24961;SDS011;12992;50.884;13.668;2023-05-16T03:04:03;16.58;;;13.45;;
24961;SDS011;12992;50.884;13.668;2023-05-16T03:06:29;17.50;;;13.15;;
24961;SDS011;12992;50.884;13.668;2023-05-16T03:08:58;17.48;;;13.32;;
24961;SDS011;12992;50.884;13.668;2023-05-16T03:11:24;18.80;;;14.02;;
24961;SDS011;12992;50.884;13.668;2023-05-16T03:13:52;17.33;;;13.63;;
24961;SDS011;12992;50.884;13.668;2023-05-16T03:16:18;17.00;;;14.05;;
24961;SDS011;12992;50.884;13.668;2023-05-16T03:18:43;15.85;;;13.18;;
24961;SDS011;12992;50.884;13.668;2023-05-16T03:21:09;21.05;;;13.80;;
24961;SDS011;12992;50.884;13.668;2023-05-16T03:23:34;19.63;;;14.23;;
24961;SDS011;12992;50.884;13.668;2023-05-16T03:26:02;17.63;;;14.50;;
24961;SDS011;12992;50.884;13.668;2023-05-16T03:28:27;21.23;;;14.20;;
24961;SDS011;12992;50.884;13.668;2023-05-16T03:30:53;18.67;;;14.13;;
24961;SDS011;12992;50.884;13.668;2023-05-16T03:33:18;21.60;;;13.75;;
24961;SDS011;12992;50.884;13.668;2023-05-16T03:35:44;17.80;;;13.90;;
24961;SDS011;12992;50.884;13.668;2023-05-16T03:38:10;16.70;;;13.65;;
24961;SDS011;12992;50.884;13.668;2023-05-16T03:40:36;21.00;;;14.77;;
24961;SDS011;12992;50.884;13.668;2023-05-16T03:43:01;19.30;;;14.95;;
24961;SDS011;12992;50.884;13.668;2023-05-16T03:45:28;20.33;;;14.52;;
24961;SDS011;12992;50.884;13.668;2023-05-16T03:47:54;17.38;;;13.65;;
24961;SDS011;12992;50.884;13.668;2023-05-16T03:50:19;18.13;;;14.73;;
24961;SDS011;12992;50.884;13.668;2023-05-16T03:52:45;18.80;;;14.73;;
24961;SDS011;12992;50.884;13.668;2023-05-16T03:55:10;17.13;;;13.77;;
24961;SDS011;12992;50.884;13.668;2023-05-16T03:57:38;24.50;;;15.50;;
24961;SDS011;12992;50.884;13.668;2023-05-16T04:00:03;20.73;;;14.93;;
24961;SDS011;12992;50.884;13.668;2023-05-16T04:02:36;20.05;;;13.88;;
24961;SDS011;12992;50.884;13.668;2023-05-16T04:05:07;18.73;;;15.23;;
24961;SDS011;12992;50.884;13.668;2023-05-16T04:07:34;18.90;;;14.70;;
24961;SDS011;12992;50.884;13.668;2023-05-16T04:09:59;19.88;;;14.57;;
24961;SDS011;12992;50.884;13.668;2023-05-16T04:12:24;20.35;;;15.05;;
24961;SDS011;12992;50.884;13.668;2023-05-16T04:14:50;18.35;;;14.13;;
24961;SDS011;12992;50.884;13.668;2023-05-16T04:17:15;16.35;;;14.20;;
24961;SDS011;12992;50.884;13.668;2023-05-16T04:19:40;19.60;;;15.23;;
24961;SDS011;12992;50.884;13.668;2023-05-16T04:22:06;23.35;;;15.38;;
24961;SDS011;12992;50.884;13.668;2023-05-16T04:24:31;19.58;;;14.63;;
24961;SDS011;12992;50.884;13.668;2023-05-16T04:26:57;19.75;;;14.63;;
24961;SDS011;12992;50.884;13.668;2023-05-16T04:29:23;18.60;;;15.15;;
24961;SDS011;12992;50.884;13.668;2023-05-16T04:31:48;18.65;;;15.10;;
24961;SDS011;12992;50.884;13.668;2023-05-16T04:34:13;18.33;;;15.07;;
24961;SDS011;12992;50.884;13.668;2023-05-16T04:36:40;21.10;;;15.27;;
24961;SDS011;12992;50.884;13.668;2023-05-16T04:39:05;21.23;;;15.52;;
24961;SDS011;12992;50.884;13.668;2023-05-16T04:41:31;21.30;;;15.25;;
24961;SDS011;12992;50.884;13.668;2023-05-16T04:43:57;22.20;;;16.60;;
24961;SDS011;12992;50.884;13.668;2023-05-16T04:46:23;23.23;;;17.85;;
24961;SDS011;12992;50.884;13.668;2023-05-16T04:48:48;22.70;;;17.33;;
24961;SDS011;12992;50.884;13.668;2023-05-16T04:51:13;24.27;;;18.58;;
24961;SDS011;12992;50.884;13.668;2023-05-16T04:53:39;24.42;;;18.63;;
24961;SDS011;12992;50.884;13.668;2023-05-16T04:56:04;24.95;;;17.58;;
24961;SDS011;12992;50.884;13.668;2023-05-16T04:58:30;23.48;;;18.45;;
24961;SDS011;12992;50.884;13.668;2023-05-16T05:00:55;22.58;;;18.45;;
24961;SDS011;12992;50.884;13.668;2023-05-16T05:03:21;24.15;;;18.45;;
24961;SDS011;12992;50.884;13.668;2023-05-16T05:05:47;22.75;;;18.05;;
24961;SDS011;12992;50.884;13.668;2023-05-16T05:08:12;21.23;;;17.63;;
24961;SDS011;12992;50.884;13.668;2023-05-16T05:10:37;23.50;;;17.83;;
24961;SDS011;12992;50.884;13.668;2023-05-16T05:13:04;25.85;;;18.00;;
24961;SDS011;12992;50.884;13.668;2023-05-16T05:15:29;22.00;;;17.60;;
24961;SDS011;12992;50.884;13.668;2023-05-16T05:17:54;22.98;;;16.80;;
24961;SDS011;12992;50.884;13.668;2023-05-16T05:20:20;22.70;;;16.95;;
24961;SDS011;12992;50.884;13.668;2023-05-16T05:22:45;19.73;;;15.77;;
24961;SDS011;12992;50.884;13.668;2023-05-16T05:25:11;21.38;;;16.10;;
24961;SDS011;12992;50.884;13.668;2023-05-16T05:27:36;29.33;;;16.88;;
24961;SDS011;12992;50.884;13.668;2023-05-16T05:30:02;22.02;;;16.88;;
24961;SDS011;12992;50.884;13.668;2023-05-16T05:32:27;25.35;;;18.42;;
24961;SDS011;12992;50.884;13.668;2023-05-16T05:34:53;24.67;;;16.35;;
24961;SDS011;12992;50.884;13.668;2023-05-16T05:37:18;17.92;;;15.13;;
24961;SDS011;12992;50.884;13.668;2023-05-16T05:39:43;20.77;;;14.40;;
24961;SDS011;12992;50.884;13.668;2023-05-16T05:42:09;17.73;;;13.80;;
24961;SDS011;12992;50.884;13.668;2023-05-16T05:44:35;20.08;;;14.48;;
24961;SDS011;12992;50.884;13.668;2023-05-16T05:47:01;20.77;;;14.20;;
24961;SDS011;12992;50.884;13.668;2023-05-16T05:49:27;21.55;;;15.68;;
24961;SDS011;12992;50.884;13.668;2023-05-16T05:51:53;20.63;;;14.65;;
24961;SDS011;12992;50.884;13.668;2023-05-16T05:54:18;18.83;;;14.23;;
24961;SDS011;12992;50.884;13.668;2023-05-16T05:56:44;20.13;;;14.82;;
24961;SDS011;12992;50.884;13.668;2023-05-16T05:59:10;20.10;;;14.32;;
24961;SDS011;12992;50.884;13.668;2023-05-16T06:01:35;22.05;;;15.38;;
24961;SDS011;12992;50.884;13.668;2023-05-16T06:04:01;22.90;;;14.77;;
24961;SDS011;12992;50.884;13.668;2023-05-16T06:06:26;20.20;;;14.88;;
24961;SDS011;12992;50.884;13.668;2023-05-16T06:08:53;20.40;;;15.10;;
24961;SDS011;12992;50.884;13.668;2023-05-16T06:11:18;19.40;;;15.32;;
24961;SDS011;12992;50.884;13.668;2023-05-16T06:13:43;21.00;;;15.63;;
24961;SDS011;12992;50.884;13.668;2023-05-16T06:16:09;23.15;;;17.77;;
24961;SDS011;12992;50.884;13.668;2023-05-16T06:18:34;25.20;;;17.98;;
24961;SDS011;12992;50.884;13.668;2023-05-16T06:20:59;23.70;;;18.92;;
24961;SDS011;12992;50.884;13.668;2023-05-16T06:23:25;26.00;;;19.10;;
24961;SDS011;12992;50.884;13.668;2023-05-16T06:25:51;26.02;;;19.95;;
24961;SDS011;12992;50.884;13.668;2023-05-16T06:28:16;32.63;;;19.77;;
24961;SDS011;12992;50.884;13.668;2023-05-16T06:30:41;24.80;;;19.48;;
24961;SDS011;12992;50.884;13.668;2023-05-16T06:33:07;27.35;;;20.00;;
24961;SDS011;12992;50.884;13.668;2023-05-16T06:35:32;25.95;;;20.27;;
24961;SDS011;12992;50.884;13.668;2023-05-16T06:37:57;27.98;;;21.77;;
24961;SDS011;12992;50.884;13.668;2023-05-16T06:40:23;29.23;;;22.23;;
24961;SDS011;12992;50.884;13.668;2023-05-16T06:42:48;28.30;;;21.52;;
24961;SDS011;12992;50.884;13.668;2023-05-16T06:45:14;32.03;;;22.23;;
24961;SDS011;12992;50.884;13.668;2023-05-16T06:47:40;33.92;;;22.70;;
24961;SDS011;12992;50.884;13.668;2023-05-16T06:50:05;31.17;;;20.85;;
24961;SDS011;12992;50.884;13.668;2023-05-16T06:52:31;33.10;;;23.10;;
24961;SDS011;12992;50.884;13.668;2023-05-16T06:54:57;32.45;;;21.98;;
24961;SDS011;12992;50.884;13.668;2023-05-16T06:57:22;36.33;;;24.35;;
24961;SDS011;12992;50.884;13.668;2023-05-16T06:59:47;36.10;;;25.08;;
24961;SDS011;12992;50.884;13.668;2023-05-16T07:02:13;38.28;;;25.67;;
24961;SDS011;12992;50.884;13.668;2023-05-16T07:04:38;39.05;;;24.98;;
24961;SDS011;12992;50.884;13.668;2023-05-16T07:07:04;36.92;;;25.15;;
24961;SDS011;12992;50.884;13.668;2023-05-16T07:09:31;33.30;;;22.65;;
24961;SDS011;12992;50.884;13.668;2023-05-16T07:11:57;30.60;;;21.52;;
24961;SDS011;12992;50.884;13.668;2023-05-16T07:14:22;27.95;;;20.92;;
24961;SDS011;12992;50.884;13.668;2023-05-16T07:16:47;30.73;;;21.77;;
24961;SDS011;12992;50.884;13.668;2023-05-16T07:19:13;32.15;;;22.20;;
24961;SDS011;12992;50.884;13.668;2023-05-16T07:21:38;32.03;;;21.60;;
24961;SDS011;12992;50.884;13.668;2023-05-16T07:24:04;37.08;;;23.33;;
24961;SDS011;12992;50.884;13.668;2023-05-16T07:26:29;35.88;;;23.48;;
24961;SDS011;12992;50.884;13.668;2023-05-16T07:28:55;36.40;;;24.17;;
24961;SDS011;12992;50.884;13.668;2023-05-16T07:31:21;37.30;;;23.80;;
24961;SDS011;12992;50.884;13.668;2023-05-16T07:33:48;34.63;;;24.65;;
24961;SDS011;12992;50.884;13.668;2023-05-16T07:36:13;35.25;;;23.33;;
24961;SDS011;12992;50.884;13.668;2023-05-16T07:38:38;36.35;;;23.60;;
24961;SDS011;12992;50.884;13.668;2023-05-16T07:41:04;35.38;;;23.38;;
24961;SDS011;12992;50.884;13.668;2023-05-16T07:43:30;38.38;;;24.70;;
24961;SDS011;12992;50.884;13.668;2023-05-16T07:45:56;35.13;;;25.45;;
24961;SDS011;12992;50.884;13.668;2023-05-16T07:48:22;39.58;;;25.35;;
24961;SDS011;12992;50.884;13.668;2023-05-16T07:50:48;34.40;;;24.40;;
24961;SDS011;12992;50.884;13.668;2023-05-16T07:53:13;29.75;;;21.52;;
24961;SDS011;12992;50.884;13.668;2023-05-16T07:55:38;32.17;;;21.98;;
24961;SDS011;12992;50.884;13.668;2023-05-16T07:58:04;28.30;;;20.85;;
24961;SDS011;12992;50.884;13.668;2023-05-16T08:00:29;28.42;;;20.80;;
24961;SDS011;12992;50.884;13.668;2023-05-16T08:02:56;28.90;;;20.60;;
24961;SDS011;12992;50.884;13.668;2023-05-16T08:05:21;30.65;;;21.13;;
24961;SDS011;12992;50.884;13.668;2023-05-16T08:07:47;30.98;;;21.23;;
24961;SDS011;12992;50.884;13.668;2023-05-16T08:10:12;31.15;;;21.73;;
24961;SDS011;12992;50.884;13.668;2023-05-16T08:12:38;29.05;;;20.65;;
24961;SDS011;12992;50.884;13.668;2023-05-16T08:15:03;31.58;;;20.70;;
24961;SDS011;12992;50.884;13.668;2023-05-16T08:17:29;33.15;;;22.33;;
24961;SDS011;12992;50.884;13.668;2023-05-16T08:19:54;33.40;;;21.83;;
24961;SDS011;12992;50.884;13.668;2023-05-16T08:22:20;33.90;;;22.13;;
24961;SDS011;12992;50.884;13.668;2023-05-16T08:24:46;31.92;;;21.30;;
24961;SDS011;12992;50.884;13.668;2023-05-16T08:27:11;32.63;;;20.90;;
24961;SDS011;12992;50.884;13.668;2023-05-16T08:29:36;31.60;;;21.58;;
24961;SDS011;12992;50.884;13.668;2023-05-16T08:32:02;33.35;;;21.50;;
24961;SDS011;12992;50.884;13.668;2023-05-16T08:34:29;32.00;;;20.83;;
24961;SDS011;12992;50.884;13.668;2023-05-16T08:36:55;33.40;;;22.08;;
24961;SDS011;12992;50.884;13.668;2023-05-16T08:39:21;34.05;;;22.45;;
24961;SDS011;12992;50.884;13.668;2023-05-16T08:41:46;34.85;;;23.10;;
24961;SDS011;12992;50.884;13.668;2023-05-16T08:44:11;29.80;;;21.08;;
24961;SDS011;12992;50.884;13.668;2023-05-16T08:46:45;33.95;;;22.27;;
24961;SDS011;12992;50.884;13.668;2023-05-16T08:49:15;33.50;;;22.15;;
24961;SDS011;12992;50.884;13.668;2023-05-16T08:51:42;34.72;;;22.13;;
24961;SDS011;12992;50.884;13.668;2023-05-16T08:54:11;34.67;;;22.77;;
24961;SDS011;12992;50.884;13.668;2023-05-16T08:56:38;36.75;;;22.67;;
24961;SDS011;12992;50.884;13.668;2023-05-16T08:59:05;33.60;;;23.10;;
24961;SDS011;12992;50.884;13.668;2023-05-16T09:01:30;33.05;;;23.35;;
24961;SDS011;12992;50.884;13.668;2023-05-16T09:03:56;32.80;;;22.70;;
24961;SDS011;12992;50.884;13.668;2023-05-16T09:06:22;31.83;;;22.20;;
24961;SDS011;12992;50.884;13.668;2023-05-16T09:08:48;34.50;;;21.80;;
24961;SDS011;12992;50.884;13.668;2023-05-16T09:11:14;33.80;;;22.67;;
24961;SDS011;12992;50.884;13.668;2023-05-16T09:13:40;31.52;;;22.40;;
24961;SDS011;12992;50.884;13.668;2023-05-16T09:16:15;34.90;;;21.95;;
24961;SDS011;12992;50.884;13.668;2023-05-16T09:18:42;34.22;;;22.25;;
24961;SDS011;12992;50.884;13.668;2023-05-16T09:21:10;33.10;;;21.80;;
24961;SDS011;12992;50.884;13.668;2023-05-16T09:23:36;30.48;;;20.23;;
24961;SDS011;12992;50.884;13.668;2023-05-16T09:26:02;29.05;;;19.67;;
24961;SDS011;12992;50.884;13.668;2023-05-16T09:28:29;33.17;;;21.13;;
24961;SDS011;12992;50.884;13.668;2023-05-16T09:30:55;29.58;;;19.83;;
24961;SDS011;12992;50.884;13.668;2023-05-16T09:33:23;25.35;;;18.10;;
24961;SDS011;12992;50.884;13.668;2023-05-16T09:35:55;28.02;;;18.17;;
24961;SDS011;12992;50.884;13.668;2023-05-16T09:38:21;24.92;;;16.90;;
24961;SDS011;12992;50.884;13.668;2023-05-16T09:40:46;26.05;;;17.52;;
24961;SDS011;12992;50.884;13.668;2023-05-16T09:43:13;25.40;;;17.95;;
24961;SDS011;12992;50.884;13.668;2023-05-16T09:45:42;25.88;;;16.65;;
24961;SDS011;12992;50.884;13.668;2023-05-16T09:48:11;21.23;;;16.20;;
24961;SDS011;12992;50.884;13.668;2023-05-16T09:50:37;22.92;;;15.98;;
24961;SDS011;12992;50.884;13.668;2023-05-16T09:53:02;22.27;;;16.17;;
24961;SDS011;12992;50.884;13.668;2023-05-16T09:55:29;21.08;;;15.60;;
24961;SDS011;12992;50.884;13.668;2023-05-16T09:57:55;21.80;;;15.43;;
24961;SDS011;12992;50.884;13.668;2023-05-16T10:00:20;21.00;;;14.85;;
24961;SDS011;12992;50.884;13.668;2023-05-16T10:02:46;20.35;;;15.30;;
24961;SDS011;12992;50.884;13.668;2023-05-16T10:05:13;19.33;;;14.55;;
24961;SDS011;12992;50.884;13.668;2023-05-16T10:07:38;24.00;;;14.63;;
24961;SDS011;12992;50.884;13.668;2023-05-16T10:10:05;17.13;;;14.27;;
24961;SDS011;12992;50.884;13.668;2023-05-16T10:12:33;20.50;;;14.88;;
24961;SDS011;12992;50.884;13.668;2023-05-16T10:14:59;18.38;;;13.63;;
24961;SDS011;12992;50.884;13.668;2023-05-16T10:17:27;16.27;;;12.25;;
24961;SDS011;12992;50.884;13.668;2023-05-16T10:19:56;15.55;;;11.43;;
24961;SDS011;12992;50.884;13.668;2023-05-16T10:22:25;16.58;;;10.60;;
24961;SDS011;12992;50.884;13.668;2023-05-16T10:27:52;15.43;;;10.48;;
24961;SDS011;12992;50.884;13.668;2023-05-16T10:30:19;16.30;;;10.35;;
24961;SDS011;12992;50.884;13.668;2023-05-16T10:32:45;12.13;;;10.73;;
24961;SDS011;12992;50.884;13.668;2023-05-16T10:35:11;16.77;;;10.48;;
24961;SDS011;12992;50.884;13.668;2023-05-16T10:37:37;11.90;;;9.73;;
24961;SDS011;12992;50.884;13.668;2023-05-16T10:40:07;13.18;;;10.50;;
24961;SDS011;12992;50.884;13.668;2023-05-16T10:42:34;12.05;;;9.75;;
24961;SDS011;12992;50.884;13.668;2023-05-16T10:47:56;16.83;;;10.70;;
24961;SDS011;12992;50.884;13.668;2023-05-16T10:50:36;13.48;;;10.77;;
24961;SDS011;12992;50.884;13.668;2023-05-16T11:06:21;13.23;;;9.43;;
24961;SDS011;12992;50.884;13.668;2023-05-16T11:11:44;11.32;;;8.32;;
24961;SDS011;12992;50.884;13.668;2023-05-16T11:17:10;10.90;;;8.15;;
24961;SDS011;12992;50.884;13.668;2023-05-16T11:19:58;11.98;;;8.52;;
24961;SDS011;12992;50.884;13.668;2023-05-16T11:22:25;11.48;;;8.43;;
24961;SDS011;12992;50.884;13.668;2023-05-16T11:24:56;10.93;;;8.23;;
24961;SDS011;12992;50.884;13.668;2023-05-16T11:29:54;9.20;;;8.20;;
24961;SDS011;12992;50.884;13.668;2023-05-16T11:32:29;12.43;;;8.40;;
24961;SDS011;12992;50.884;13.668;2023-05-16T11:34:55;10.32;;;8.68;;
24961;SDS011;12992;50.884;13.668;2023-05-16T11:37:22;9.60;;;8.10;;
24961;SDS011;12992;50.884;13.668;2023-05-16T11:39:47;11.25;;;8.40;;
24961;SDS011;12992;50.884;13.668;2023-05-16T11:42:13;9.07;;;7.05;;
24961;SDS011;12992;50.884;13.668;2023-05-16T11:44:38;10.75;;;7.93;;
24961;SDS011;12992;50.884;13.668;2023-05-16T11:47:05;10.27;;;7.65;;
24961;SDS011;12992;50.884;13.668;2023-05-16T11:49:31;8.05;;;6.68;;
24961;SDS011;12992;50.884;13.668;2023-05-16T11:51:57;8.80;;;6.43;;
24961;SDS011;12992;50.884;13.668;2023-05-16T11:54:22;8.82;;;6.30;;
24961;SDS011;12992;50.884;13.668;2023-05-16T11:56:49;10.10;;;6.65;;
24961;SDS011;12992;50.884;13.668;2023-05-16T11:59:15;7.97;;;6.15;;
24961;SDS011;12992;50.884;13.668;2023-05-16T12:01:41;8.93;;;6.00;;
24961;SDS011;12992;50.884;13.668;2023-05-16T12:04:10;6.03;;;5.40;;
24961;SDS011;12992;50.884;13.668;2023-05-16T12:06:40;7.43;;;6.40;;
24961;SDS011;12992;50.884;13.668;2023-05-16T12:09:11;8.65;;;6.50;;
24961;SDS011;12992;50.884;13.668;2023-05-16T12:11:41;9.27;;;6.60;;
24961;SDS011;12992;50.884;13.668;2023-05-16T12:14:08;6.75;;;5.80;;
24961;SDS011;12992;50.884;13.668;2023-05-16T12:16:35;7.72;;;6.15;;
24961;SDS011;12992;50.884;13.668;2023-05-16T12:19:01;12.55;;;6.55;;
24961;SDS011;12992;50.884;13.668;2023-05-16T12:21:29;8.68;;;6.20;;
24961;SDS011;12992;50.884;13.668;2023-05-16T12:23:56;7.05;;;6.35;;
24961;SDS011;12992;50.884;13.668;2023-05-16T12:26:31;13.13;;;6.68;;
24961;SDS011;12992;50.884;13.668;2023-05-16T12:29:00;14.80;;;6.22;;
24961;SDS011;12992;50.884;13.668;2023-05-16T12:31:28;10.38;;;6.10;;
24961;SDS011;12992;50.884;13.668;2023-05-16T12:33:57;9.43;;;6.20;;
24961;SDS011;12992;50.884;13.668;2023-05-16T12:36:23;9.30;;;5.82;;
24961;SDS011;12992;50.884;13.668;2023-05-16T12:38:50;8.20;;;6.22;;
24961;SDS011;12992;50.884;13.668;2023-05-16T12:41:19;7.55;;;6.35;;
24961;SDS011;12992;50.884;13.668;2023-05-16T12:43:46;8.93;;;6.35;;
24961;SDS011;12992;50.884;13.668;2023-05-16T12:46:12;6.70;;;5.82;;
24961;SDS011;12992;50.884;13.668;2023-05-16T12:48:37;6.82;;;5.70;;
24961;SDS011;12992;50.884;13.668;2023-05-16T12:53:41;8.13;;;5.97;;
24961;SDS011;12992;50.884;13.668;2023-05-16T12:56:13;6.32;;;5.47;;
24961;SDS011;12992;50.884;13.668;2023-05-16T12:58:40;7.85;;;6.47;;
24961;SDS011;12992;50.884;13.668;2023-05-16T13:01:06;6.53;;;5.22;;
24961;SDS011;12992;50.884;13.668;2023-05-16T13:03:32;7.40;;;5.60;;
24961;SDS011;12992;50.884;13.668;2023-05-16T13:05:58;6.72;;;5.70;;
24961;SDS011;12992;50.884;13.668;2023-05-16T13:08:24;7.95;;;5.60;;
24961;SDS011;12992;50.884;13.668;2023-05-16T13:10:50;9.45;;;6.00;;
24961;SDS011;12992;50.884;13.668;2023-05-16T13:13:15;9.43;;;6.57;;
24961;SDS011;12992;50.884;13.668;2023-05-16T13:15:42;10.82;;;6.00;;
24961;SDS011;12992;50.884;13.668;2023-05-16T13:18:12;8.80;;;6.00;;
24961;SDS011;12992;50.884;13.668;2023-05-16T13:20:37;8.48;;;6.40;;
24961;SDS011;12992;50.884;13.668;2023-05-16T13:23:03;10.07;;;6.28;;
24961;SDS011;12992;50.884;13.668;2023-05-16T13:25:29;8.00;;;5.55;;
24961;SDS011;12992;50.884;13.668;2023-05-16T13:27:55;7.05;;;5.75;;
24961;SDS011;12992;50.884;13.668;2023-05-16T13:30:20;6.97;;;5.82;;
24961;SDS011;12992;50.884;13.668;2023-05-16T13:32:45;9.30;;;6.10;;
24961;SDS011;12992;50.884;13.668;2023-05-16T13:35:12;8.20;;;6.10;;
24961;SDS011;12992;50.884;13.668;2023-05-16T13:37:37;8.50;;;6.63;;
24961;SDS011;12992;50.884;13.668;2023-05-16T13:40:03;9.88;;;6.28;;
24961;SDS011;12992;50.884;13.668;2023-05-16T13:42:29;9.40;;;5.72;;
24961;SDS011;12992;50.884;13.668;2023-05-16T13:44:54;7.60;;;5.70;;
24961;SDS011;12992;50.884;13.668;2023-05-16T13:47:20;9.93;;;6.10;;
24961;SDS011;12992;50.884;13.668;2023-05-16T13:49:45;6.47;;;5.50;;
24961;SDS011;12992;50.884;13.668;2023-05-16T13:52:11;5.90;;;5.03;;
24961;SDS011;12992;50.884;13.668;2023-05-16T13:54:37;6.68;;;5.60;;
24961;SDS011;12992;50.884;13.668;2023-05-16T13:57:04;6.45;;;5.10;;
24961;SDS011;12992;50.884;13.668;2023-05-16T13:59:29;8.30;;;5.32;;
24961;SDS011;12992;50.884;13.668;2023-05-16T14:01:55;9.68;;;5.28;;
24961;SDS011;12992;50.884;13.668;2023-05-16T14:04:20;7.30;;;4.57;;
24961;SDS011;12992;50.884;13.668;2023-05-16T14:06:45;6.88;;;5.03;;
24961;SDS011;12992;50.884;13.668;2023-05-16T14:09:11;6.60;;;4.50;;
24961;SDS011;12992;50.884;13.668;2023-05-16T14:11:37;7.95;;;4.97;;
24961;SDS011;12992;50.884;13.668;2023-05-16T14:14:02;7.38;;;4.68;;
24961;SDS011;12992;50.884;13.668;2023-05-16T14:16:28;6.43;;;4.75;;
24961;SDS011;12992;50.884;13.668;2023-05-16T14:18:54;6.53;;;4.10;;
24961;SDS011;12992;50.884;13.668;2023-05-16T14:21:20;6.70;;;4.45;;
24961;SDS011;12992;50.884;13.668;2023-05-16T14:23:45;7.35;;;4.97;;
24961;SDS011;12992;50.884;13.668;2023-05-16T14:26:10;9.35;;;4.82;;
24961;SDS011;12992;50.884;13.668;2023-05-16T14:28:36;13.75;;;5.00;;
24961;SDS011;12992;50.884;13.668;2023-05-16T14:31:01;9.50;;;4.68;;
24961;SDS011;12992;50.884;13.668;2023-05-16T14:33:27;8.40;;;4.90;;
24961;SDS011;12992;50.884;13.668;2023-05-16T14:35:52;6.20;;;4.10;;
24961;SDS011;12992;50.884;13.668;2023-05-16T14:38:18;7.32;;;5.05;;
24961;SDS011;12992;50.884;13.668;2023-05-16T14:40:44;7.00;;;4.80;;
24961;SDS011;12992;50.884;13.668;2023-05-16T14:43:09;6.18;;;4.60;;
24961;SDS011;12992;50.884;13.668;2023-05-16T14:45:36;5.90;;;4.80;;
24961;SDS011;12992;50.884;13.668;2023-05-16T14:48:02;7.80;;;4.95;;